EWG2CA EDDH-EDDS
Flight info
| Callsign | EWG2CA |
|---|---|
| Flight time | 0h 57m |
| Altitude | 34000 |
| Route | AMLUH2G AMLUH M852 DENIX DCT OBATU DCT BERXO/N0432F350 DCT SILWE DCT OSBIT P605 TOSTU T726 LBU |
| Aircraft | A320/M-SDE3FGHIRWY/LB1 |
Departure
| Time | 2026-04-26 18:38 |
|---|---|
| Airport | Hamburg Helmut Schmidt Airport (EDDH) |
Arrival
| Time | 2026-04-26 19:35 |
|---|---|
| Airport | Stuttgart Airport (EDDS) |
| Time | Latitude | Longitude | Altitude | Speed | Heading |
|---|---|---|---|---|---|
| 2026-04-26 18:02 | 53.63245 | 10.00357 | 49 ft | 0 kts | 86° |
| 2026-04-26 18:31 | 53.63245 | 10.00348 | 49 ft | 5 kts | 86° |
| 2026-04-26 18:31 | 53.63243 | 10.00293 | 49 ft | 5 kts | 90° |
| 2026-04-26 18:31 | 53.63244 | 10.00260 | 49 ft | 2 kts | 123° |
| 2026-04-26 18:32 | 53.63252 | 10.00246 | 49 ft | 2 kts | 164° |
| 2026-04-26 18:32 | 53.63263 | 10.00241 | 47 ft | 2 kts | 174° |
| 2026-04-26 18:32 | 53.63272 | 10.00240 | 49 ft | 0 kts | 175° |
| 2026-04-26 18:34 | 53.63234 | 10.00194 | 48 ft | 11 kts | 217° |
| 2026-04-26 18:34 | 53.63117 | 10.00192 | 48 ft | 20 kts | 175° |
| 2026-04-26 18:35 | 53.63006 | 10.00112 | 46 ft | 18 kts | 216° |
| 2026-04-26 18:35 | 53.62924 | 10.00000 | 48 ft | 11 kts | 237° |
| 2026-04-26 18:35 | 53.62902 | 9.99934 | 48 ft | 6 kts | 242° |
| 2026-04-26 18:35 | 53.62900 | 9.99925 | 48 ft | 2 kts | 242° |
| 2026-04-26 18:36 | 53.62867 | 9.99818 | 45 ft | 17 kts | 243° |
| 2026-04-26 18:36 | 53.62883 | 9.99733 | 45 ft | 7 kts | 331° |
| 2026-04-26 18:36 | 53.62886 | 9.99730 | 45 ft | 0 kts | 332° |
| 2026-04-26 18:37 | 53.62913 | 9.99705 | 45 ft | 28 kts | 332° |
| 2026-04-26 18:37 | 53.63307 | 9.99364 | 47 ft | 97 kts | 333° |
| 2026-04-26 18:37 | 53.64081 | 9.98687 | 49 ft | 150 kts | 333° |
| 2026-04-26 18:37 | 53.65052 | 9.97889 | 633 ft | 153 kts | 333° |
| 2026-04-26 18:38 | 53.66003 | 9.97087 | 1331 ft | 153 kts | 331° |
| 2026-04-26 18:38 | 53.67007 | 9.96202 | 1741 ft | 173 kts | 331° |
| 2026-04-26 18:38 | 53.68118 | 9.95236 | 2120 ft | 190 kts | 332° |
| 2026-04-26 18:38 | 53.69456 | 9.94621 | 2476 ft | 210 kts | 357° |
| 2026-04-26 18:39 | 53.70978 | 9.94741 | 3027 ft | 222 kts | 360° |
| 2026-04-26 18:39 | 53.72487 | 9.95153 | 3776 ft | 228 kts | 24° |
| 2026-04-26 18:39 | 53.73598 | 9.97027 | 4598 ft | 230 kts | 65° |
| 2026-04-26 18:39 | 53.74020 | 9.99637 | 5437 ft | 231 kts | 80° |
| 2026-04-26 18:40 | 53.74120 | 10.02372 | 6156 ft | 237 kts | 95° |
| 2026-04-26 18:40 | 53.73697 | 10.05110 | 6810 ft | 249 kts | 114° |
| 2026-04-26 18:40 | 53.72839 | 10.07743 | 7200 ft | 270 kts | 119° |
| 2026-04-26 18:40 | 53.71874 | 10.10619 | 7717 ft | 287 kts | 118° |
| 2026-04-26 18:41 | 53.70872 | 10.13583 | 8511 ft | 293 kts | 118° |
| 2026-04-26 18:41 | 53.69849 | 10.16566 | 9319 ft | 300 kts | 122° |
| 2026-04-26 18:41 | 53.68453 | 10.19224 | 10130 ft | 307 kts | 140° |
| 2026-04-26 18:41 | 53.66639 | 10.21169 | 10887 ft | 311 kts | 156° |
| 2026-04-26 18:42 | 53.64541 | 10.22385 | 11316 ft | 329 kts | 166° |
| 2026-04-26 18:42 | 53.62248 | 10.23402 | 11618 ft | 350 kts | 166° |
| 2026-04-26 18:42 | 53.59865 | 10.24475 | 12219 ft | 359 kts | 166° |
| 2026-04-26 18:42 | 53.57436 | 10.25584 | 12943 ft | 364 kts | 166° |
| 2026-04-26 18:43 | 53.54980 | 10.26711 | 13682 ft | 368 kts | 166° |
| 2026-04-26 18:43 | 53.52497 | 10.27850 | 14380 ft | 372 kts | 166° |
| 2026-04-26 18:43 | 53.49983 | 10.29005 | 15037 ft | 375 kts | 166° |
| 2026-04-26 18:43 | 53.47455 | 10.30163 | 15695 ft | 378 kts | 167° |
| 2026-04-26 18:44 | 53.44933 | 10.31313 | 16348 ft | 382 kts | 167° |
| 2026-04-26 18:44 | 53.42355 | 10.32483 | 17017 ft | 385 kts | 167° |
| 2026-04-26 18:44 | 53.39761 | 10.33653 | 17667 ft | 388 kts | 167° |
| 2026-04-26 18:44 | 53.37140 | 10.34828 | 18305 ft | 391 kts | 167° |
| 2026-04-26 18:45 | 53.34498 | 10.36015 | 18899 ft | 394 kts | 167° |
| 2026-04-26 18:45 | 53.31834 | 10.37215 | 19435 ft | 397 kts | 167° |
| 2026-04-26 18:45 | 53.29150 | 10.38421 | 19981 ft | 400 kts | 167° |
| 2026-04-26 18:45 | 53.26435 | 10.39638 | 20517 ft | 404 kts | 167° |
| 2026-04-26 18:46 | 53.23753 | 10.40840 | 21039 ft | 407 kts | 168° |
| 2026-04-26 18:46 | 53.20998 | 10.42072 | 21556 ft | 410 kts | 168° |
| 2026-04-26 18:46 | 53.18232 | 10.43302 | 22063 ft | 413 kts | 168° |
| 2026-04-26 18:46 | 53.15435 | 10.44539 | 22569 ft | 416 kts | 169° |
| 2026-04-26 18:47 | 53.12590 | 10.45355 | 23052 ft | 415 kts | 179° |
| 2026-04-26 18:47 | 53.09693 | 10.45399 | 23536 ft | 414 kts | 187° |
| 2026-04-26 18:47 | 53.06837 | 10.45100 | 23988 ft | 417 kts | 187° |
| 2026-04-26 18:47 | 53.03923 | 10.44794 | 24397 ft | 420 kts | 187° |
| 2026-04-26 18:48 | 53.00999 | 10.44497 | 24810 ft | 422 kts | 187° |
| 2026-04-26 18:48 | 52.98059 | 10.44212 | 25217 ft | 424 kts | 187° |
| 2026-04-26 18:48 | 52.95079 | 10.43924 | 25624 ft | 427 kts | 187° |
| 2026-04-26 18:48 | 52.92108 | 10.43639 | 26017 ft | 429 kts | 187° |
| 2026-04-26 18:49 | 52.89114 | 10.43349 | 26408 ft | 431 kts | 187° |
| 2026-04-26 18:49 | 52.86146 | 10.43057 | 26787 ft | 433 kts | 187° |
| 2026-04-26 18:49 | 52.83090 | 10.42753 | 27173 ft | 436 kts | 187° |
| 2026-04-26 18:49 | 52.80089 | 10.42456 | 27548 ft | 438 kts | 187° |
| 2026-04-26 18:50 | 52.77027 | 10.42154 | 27920 ft | 440 kts | 187° |
| 2026-04-26 18:50 | 52.73954 | 10.41854 | 28296 ft | 443 kts | 187° |
| 2026-04-26 18:50 | 52.70868 | 10.41484 | 28651 ft | 443 kts | 192° |
| 2026-04-26 18:50 | 52.67814 | 10.40528 | 29013 ft | 442 kts | 197° |
| 2026-04-26 18:51 | 52.64826 | 10.39421 | 29355 ft | 444 kts | 197° |
| 2026-04-26 18:51 | 52.61837 | 10.38307 | 29703 ft | 447 kts | 197° |
| 2026-04-26 18:51 | 52.58799 | 10.37173 | 30036 ft | 449 kts | 197° |
| 2026-04-26 18:51 | 52.55739 | 10.36031 | 30355 ft | 451 kts | 197° |
| 2026-04-26 18:52 | 52.52668 | 10.34886 | 30619 ft | 453 kts | 197° |
| 2026-04-26 18:52 | 52.49580 | 10.33739 | 30882 ft | 455 kts | 197° |
| 2026-04-26 18:52 | 52.46478 | 10.32598 | 31140 ft | 457 kts | 197° |
| 2026-04-26 18:52 | 52.43402 | 10.31471 | 31399 ft | 459 kts | 197° |
| 2026-04-26 18:53 | 52.40279 | 10.30329 | 31653 ft | 461 kts | 197° |
| 2026-04-26 18:53 | 52.37141 | 10.29182 | 32000 ft | 461 kts | 197° |
| 2026-04-26 18:53 | 52.34004 | 10.28033 | 32363 ft | 460 kts | 197° |
| 2026-04-26 18:53 | 52.30885 | 10.26892 | 32720 ft | 459 kts | 197° |
| 2026-04-26 18:54 | 52.27767 | 10.25758 | 33068 ft | 459 kts | 197° |
| 2026-04-26 18:54 | 52.24639 | 10.24621 | 33270 ft | 459 kts | 197° |
| 2026-04-26 18:54 | 52.18529 | 10.22399 | 33299 ft | 445 kts | 197° |
| 2026-04-26 18:55 | 52.12540 | 10.20209 | 33297 ft | 443 kts | 197° |
| 2026-04-26 18:55 | 52.06519 | 10.18013 | 33298 ft | 443 kts | 197° |
| 2026-04-26 18:56 | 52.00491 | 10.15841 | 33292 ft | 443 kts | 197° |
| 2026-04-26 18:56 | 51.94458 | 10.13671 | 33292 ft | 443 kts | 197° |
| 2026-04-26 18:57 | 51.89447 | 10.11876 | 33287 ft | 443 kts | 197° |
| 2026-04-26 18:57 | 51.82409 | 10.09356 | 33281 ft | 443 kts | 197° |
| 2026-04-26 18:58 | 51.76417 | 10.07205 | 33280 ft | 443 kts | 197° |
| 2026-04-26 18:58 | 51.70380 | 10.05051 | 33273 ft | 444 kts | 197° |
| 2026-04-26 18:59 | 51.64345 | 10.02910 | 33274 ft | 444 kts | 197° |
| 2026-04-26 18:59 | 51.58342 | 10.00795 | 33268 ft | 444 kts | 197° |
| 2026-04-26 19:00 | 51.52308 | 9.98665 | 33268 ft | 444 kts | 196° |
| 2026-04-26 19:00 | 51.46263 | 9.96536 | 33269 ft | 444 kts | 197° |
| 2026-04-26 19:01 | 51.40224 | 9.94409 | 33264 ft | 444 kts | 196° |
| 2026-04-26 19:01 | 51.34224 | 9.92310 | 33263 ft | 444 kts | 196° |
| 2026-04-26 19:02 | 51.28176 | 9.90204 | 33262 ft | 444 kts | 196° |
| 2026-04-26 19:02 | 51.23138 | 9.88483 | 33258 ft | 445 kts | 193° |
| 2026-04-26 19:03 | 51.15877 | 9.87647 | 33270 ft | 451 kts | 186° |
| 2026-04-26 19:03 | 51.09599 | 9.87098 | 33284 ft | 450 kts | 186° |
| 2026-04-26 19:04 | 51.03378 | 9.86555 | 33287 ft | 450 kts | 186° |
| 2026-04-26 19:04 | 50.97101 | 9.85993 | 33287 ft | 449 kts | 186° |
| 2026-04-26 19:05 | 50.87768 | 9.85168 | 33283 ft | 449 kts | 186° |
| 2026-04-26 19:06 | 50.81524 | 9.84638 | 33286 ft | 449 kts | 186° |
| 2026-04-26 19:06 | 50.75287 | 9.84110 | 33282 ft | 448 kts | 186° |
| 2026-04-26 19:07 | 50.69048 | 9.83577 | 33276 ft | 448 kts | 186° |
| 2026-04-26 19:07 | 50.62815 | 9.83039 | 33274 ft | 448 kts | 186° |
| 2026-04-26 19:07 | 50.59707 | 9.82770 | 33092 ft | 446 kts | 186° |
| 2026-04-26 19:08 | 50.56613 | 9.82507 | 32909 ft | 443 kts | 186° |
| 2026-04-26 19:08 | 50.53572 | 9.82250 | 32770 ft | 442 kts | 186° |
| 2026-04-26 19:08 | 50.50495 | 9.81988 | 32583 ft | 441 kts | 186° |
| 2026-04-26 19:08 | 50.47435 | 9.81729 | 32103 ft | 438 kts | 186° |
| 2026-04-26 19:09 | 50.44403 | 9.81473 | 31550 ft | 436 kts | 186° |
| 2026-04-26 19:09 | 50.41379 | 9.81216 | 31015 ft | 434 kts | 186° |
| 2026-04-26 19:09 | 50.38367 | 9.80956 | 30474 ft | 432 kts | 186° |
| 2026-04-26 19:09 | 50.35387 | 9.80575 | 30050 ft | 423 kts | 193° |
| 2026-04-26 19:10 | 50.32520 | 9.79657 | 29576 ft | 417 kts | 195° |
| 2026-04-26 19:10 | 50.29719 | 9.78731 | 29157 ft | 415 kts | 195° |
| 2026-04-26 19:10 | 50.26892 | 9.77797 | 28739 ft | 413 kts | 195° |
| 2026-04-26 19:10 | 50.24090 | 9.76874 | 28331 ft | 410 kts | 195° |
| 2026-04-26 19:11 | 50.21304 | 9.75956 | 27929 ft | 407 kts | 195° |
| 2026-04-26 19:11 | 50.18540 | 9.75039 | 27530 ft | 405 kts | 195° |
| 2026-04-26 19:11 | 50.15796 | 9.74124 | 27147 ft | 402 kts | 195° |
| 2026-04-26 19:11 | 50.13059 | 9.73199 | 26770 ft | 399 kts | 195° |
| 2026-04-26 19:12 | 50.10349 | 9.72257 | 26489 ft | 397 kts | 195° |
| 2026-04-26 19:12 | 50.07663 | 9.71321 | 26215 ft | 396 kts | 195° |
| 2026-04-26 19:12 | 50.04976 | 9.70401 | 25937 ft | 394 kts | 195° |
| 2026-04-26 19:12 | 50.02296 | 9.69507 | 25663 ft | 393 kts | 194° |
| 2026-04-26 19:13 | 49.99661 | 9.68647 | 25394 ft | 391 kts | 194° |
| 2026-04-26 19:13 | 49.96995 | 9.67786 | 25126 ft | 389 kts | 194° |
| 2026-04-26 19:13 | 49.94341 | 9.66929 | 24858 ft | 388 kts | 194° |
| 2026-04-26 19:13 | 49.91704 | 9.66077 | 24597 ft | 386 kts | 194° |
| 2026-04-26 19:14 | 49.89069 | 9.65226 | 24351 ft | 385 kts | 194° |
| 2026-04-26 19:14 | 49.86446 | 9.64378 | 24234 ft | 383 kts | 194° |
| 2026-04-26 19:14 | 49.83870 | 9.63544 | 24259 ft | 384 kts | 194° |
| 2026-04-26 19:14 | 49.82981 | 9.63255 | 24260 ft | 384 kts | 194° |
| 2026-04-26 19:15 | 49.78711 | 9.61867 | 24254 ft | 365 kts | 194° |
| 2026-04-26 19:15 | 49.76247 | 9.61070 | 24090 ft | 361 kts | 194° |
| 2026-04-26 19:15 | 49.73711 | 9.60244 | 23069 ft | 380 kts | 194° |
| 2026-04-26 19:15 | 49.71108 | 9.59399 | 21988 ft | 393 kts | 194° |
| 2026-04-26 19:16 | 49.68362 | 9.58511 | 21108 ft | 400 kts | 194° |
| 2026-04-26 19:16 | 49.65682 | 9.57650 | 20586 ft | 397 kts | 193° |
| 2026-04-26 19:16 | 49.62989 | 9.56789 | 20128 ft | 392 kts | 193° |
| 2026-04-26 19:16 | 49.60325 | 9.55937 | 19695 ft | 388 kts | 193° |
| 2026-04-26 19:17 | 49.57694 | 9.55096 | 19251 ft | 384 kts | 193° |
| 2026-04-26 19:17 | 49.55085 | 9.54261 | 18822 ft | 380 kts | 193° |
| 2026-04-26 19:17 | 49.52502 | 9.53433 | 18342 ft | 377 kts | 193° |
| 2026-04-26 19:17 | 49.49963 | 9.52619 | 17810 ft | 375 kts | 193° |
| 2026-04-26 19:18 | 49.47400 | 9.51797 | 17279 ft | 374 kts | 193° |
| 2026-04-26 19:18 | 49.44862 | 9.50983 | 16762 ft | 372 kts | 193° |
| 2026-04-26 19:18 | 49.42335 | 9.50175 | 16250 ft | 371 kts | 193° |
| 2026-04-26 19:18 | 49.39799 | 9.49364 | 15749 ft | 370 kts | 193° |
| 2026-04-26 19:19 | 49.37281 | 9.48563 | 15247 ft | 368 kts | 193° |
| 2026-04-26 19:19 | 49.35618 | 9.48038 | 14926 ft | 367 kts | 193° |
| 2026-04-26 19:19 | 49.32308 | 9.46994 | 14288 ft | 365 kts | 193° |
| 2026-04-26 19:19 | 49.29825 | 9.46211 | 13783 ft | 363 kts | 193° |
| 2026-04-26 19:20 | 49.28154 | 9.45685 | 13426 ft | 361 kts | 193° |
| 2026-04-26 19:20 | 49.26523 | 9.45170 | 13076 ft | 360 kts | 193° |
| 2026-04-26 19:20 | 49.23261 | 9.44136 | 12401 ft | 356 kts | 193° |
| 2026-04-26 19:20 | 49.20896 | 9.43384 | 12222 ft | 344 kts | 193° |
| 2026-04-26 19:21 | 49.18612 | 9.42656 | 12238 ft | 327 kts | 193° |
| 2026-04-26 19:21 | 49.16418 | 9.41957 | 12243 ft | 318 kts | 193° |
| 2026-04-26 19:21 | 49.14271 | 9.41274 | 12240 ft | 308 kts | 193° |
| 2026-04-26 19:21 | 49.12217 | 9.40623 | 12241 ft | 303 kts | 193° |
| 2026-04-26 19:22 | 49.10148 | 9.39971 | 12242 ft | 302 kts | 193° |
| 2026-04-26 19:22 | 49.08088 | 9.39320 | 12241 ft | 302 kts | 193° |
| 2026-04-26 19:22 | 49.06029 | 9.38666 | 12241 ft | 302 kts | 194° |
| 2026-04-26 19:22 | 49.03964 | 9.38009 | 12237 ft | 302 kts | 194° |
| 2026-04-26 19:23 | 49.01903 | 9.37358 | 12238 ft | 297 kts | 194° |
| 2026-04-26 19:23 | 48.99942 | 9.36742 | 12235 ft | 283 kts | 194° |
| 2026-04-26 19:23 | 48.98046 | 9.36148 | 12067 ft | 276 kts | 194° |
| 2026-04-26 19:23 | 48.96133 | 9.35543 | 11439 ft | 287 kts | 194° |
| 2026-04-26 19:24 | 48.94139 | 9.34913 | 10842 ft | 297 kts | 194° |
| 2026-04-26 19:24 | 48.92148 | 9.34015 | 10516 ft | 301 kts | 206° |
| 2026-04-26 19:24 | 48.88768 | 9.30363 | 9963 ft | 297 kts | 226° |
| 2026-04-26 19:25 | 48.87299 | 9.28225 | 9789 ft | 288 kts | 226° |
| 2026-04-26 19:25 | 48.86342 | 9.26837 | 9584 ft | 285 kts | 226° |
| 2026-04-26 19:25 | 48.84431 | 9.24074 | 9108 ft | 283 kts | 225° |
| 2026-04-26 19:25 | 48.83028 | 9.22045 | 8748 ft | 281 kts | 225° |
| 2026-04-26 19:26 | 48.81613 | 9.20002 | 8364 ft | 280 kts | 225° |
| 2026-04-26 19:26 | 48.80206 | 9.17973 | 7978 ft | 278 kts | 225° |
| 2026-04-26 19:26 | 48.78806 | 9.15957 | 7605 ft | 276 kts | 225° |
| 2026-04-26 19:26 | 48.77431 | 9.13924 | 7225 ft | 275 kts | 230° |
| 2026-04-26 19:27 | 48.76464 | 9.11482 | 6859 ft | 270 kts | 250° |
| 2026-04-26 19:27 | 48.75862 | 9.08781 | 6440 ft | 269 kts | 253° |
| 2026-04-26 19:27 | 48.75308 | 9.06074 | 6060 ft | 268 kts | 254° |
| 2026-04-26 19:27 | 48.74764 | 9.03375 | 5914 ft | 269 kts | 254° |
| 2026-04-26 19:28 | 48.74225 | 9.00694 | 5662 ft | 268 kts | 254° |
| 2026-04-26 19:28 | 48.73681 | 8.97990 | 5405 ft | 266 kts | 254° |
| 2026-04-26 19:28 | 48.73128 | 8.95349 | 5220 ft | 259 kts | 254° |
| 2026-04-26 19:28 | 48.72567 | 8.92804 | 5047 ft | 249 kts | 254° |
| 2026-04-26 19:29 | 48.72019 | 8.90385 | 5007 ft | 238 kts | 251° |
| 2026-04-26 19:29 | 48.71080 | 8.88334 | 5020 ft | 241 kts | 221° |
| 2026-04-26 19:29 | 48.69581 | 8.87269 | 5009 ft | 237 kts | 189° |
| 2026-04-26 19:29 | 48.67988 | 8.87394 | 5008 ft | 229 kts | 167° |
| 2026-04-26 19:30 | 48.66517 | 8.88265 | 5012 ft | 227 kts | 148° |
| 2026-04-26 19:30 | 48.65297 | 8.89756 | 5014 ft | 225 kts | 129° |
| 2026-04-26 19:30 | 48.64439 | 8.91712 | 5003 ft | 223 kts | 112° |
| 2026-04-26 19:30 | 48.64101 | 8.93181 | 4911 ft | 221 kts | 100° |
| 2026-04-26 19:31 | 48.64044 | 8.96231 | 4603 ft | 216 kts | 76° |
| 2026-04-26 19:31 | 48.64438 | 8.98417 | 4315 ft | 214 kts | 71° |
| 2026-04-26 19:31 | 48.64844 | 9.00523 | 4040 ft | 208 kts | 71° |
| 2026-04-26 19:31 | 48.65246 | 9.02610 | 3767 ft | 202 kts | 71° |
| 2026-04-26 19:32 | 48.65629 | 9.04608 | 3521 ft | 197 kts | 70° |
| 2026-04-26 19:32 | 48.66006 | 9.06571 | 3259 ft | 192 kts | 71° |
| 2026-04-26 19:32 | 48.66374 | 9.08491 | 2992 ft | 188 kts | 70° |
| 2026-04-26 19:32 | 48.66727 | 9.10342 | 2752 ft | 176 kts | 70° |
| 2026-04-26 19:33 | 48.67046 | 9.12016 | 2522 ft | 157 kts | 70° |
| 2026-04-26 19:33 | 48.67339 | 9.13552 | 2301 ft | 148 kts | 70° |
| 2026-04-26 19:33 | 48.67622 | 9.15029 | 2110 ft | 145 kts | 71° |
| 2026-04-26 19:33 | 48.67911 | 9.16486 | 1919 ft | 144 kts | 70° |
| 2026-04-26 19:34 | 48.68177 | 9.17971 | 1687 ft | 145 kts | 73° |
| 2026-04-26 19:34 | 48.68457 | 9.19424 | 1466 ft | 142 kts | 71° |
| 2026-04-26 19:34 | 48.68734 | 9.20858 | 1279 ft | 136 kts | 72° |
| 2026-04-26 19:34 | 48.68966 | 9.22058 | 1245 ft | 99 kts | 74° |
| 2026-04-26 19:35 | 48.69120 | 9.22828 | 1222 ft | 53 kts | 68° |
| 2026-04-26 19:35 | 48.69289 | 9.23131 | 1215 ft | 24 kts | 38° |
| 2026-04-26 19:35 | 48.69335 | 9.23155 | 1214 ft | 0 kts | 4° |
| 2026-04-26 19:36 | 48.69344 | 9.23155 | 1214 ft | 1 kts | 357° |
| 2026-04-26 19:36 | 48.69350 | 9.23153 | 1214 ft | 2 kts | 351° |
| 2026-04-26 19:36 | 48.69403 | 9.23083 | 1215 ft | 10 kts | 291° |
| 2026-04-26 19:36 | 48.69392 | 9.22963 | 1215 ft | 12 kts | 255° |
| 2026-04-26 19:37 | 48.69365 | 9.22813 | 1221 ft | 16 kts | 254° |
| 2026-04-26 19:37 | 48.69336 | 9.22663 | 1224 ft | 14 kts | 253° |
| 2026-04-26 19:37 | 48.69308 | 9.22517 | 1227 ft | 16 kts | 254° |
| 2026-04-26 19:37 | 48.69276 | 9.22345 | 1233 ft | 17 kts | 253° |
| 2026-04-26 19:38 | 48.69244 | 9.22180 | 1244 ft | 16 kts | 253° |
| 2026-04-26 19:38 | 48.69214 | 9.22020 | 1246 ft | 16 kts | 254° |
| 2026-04-26 19:38 | 48.69186 | 9.21870 | 1249 ft | 15 kts | 254° |
| 2026-04-26 19:38 | 48.69160 | 9.21733 | 1253 ft | 13 kts | 253° |
| 2026-04-26 19:39 | 48.69135 | 9.21601 | 1252 ft | 14 kts | 254° |
| 2026-04-26 19:39 | 48.69106 | 9.21445 | 1250 ft | 16 kts | 253° |
| 2026-04-26 19:39 | 48.69075 | 9.21287 | 1260 ft | 16 kts | 255° |
| 2026-04-26 19:39 | 48.69046 | 9.21131 | 1259 ft | 16 kts | 254° |
| 2026-04-26 19:40 | 48.69015 | 9.20970 | 1262 ft | 17 kts | 254° |
| 2026-04-26 19:40 | 48.68983 | 9.20782 | 1266 ft | 20 kts | 256° |
| 2026-04-26 19:40 | 48.68939 | 9.20563 | 1267 ft | 22 kts | 253° |
| 2026-04-26 19:40 | 48.68908 | 9.20396 | 1270 ft | 9 kts | 254° |
| 2026-04-26 19:41 | 48.68896 | 9.20336 | 1269 ft | 5 kts | 253° |
| 2026-04-26 19:41 | 48.68881 | 9.20265 | 1271 ft | 7 kts | 253° |
| 2026-04-26 19:41 | 48.68867 | 9.20190 | 1272 ft | 7 kts | 254° |
| 2026-04-26 19:41 | 48.68857 | 9.20136 | 1275 ft | 9 kts | 254° |
| 2026-04-26 19:42 | 48.68828 | 9.19974 | 1281 ft | 15 kts | 256° |
| 2026-04-26 19:42 | 48.68883 | 9.19855 | 1279 ft | 15 kts | 309° |
| 2026-04-26 19:42 | 48.68863 | 9.19684 | 1282 ft | 20 kts | 257° |
| 2026-04-26 19:42 | 48.68824 | 9.19481 | 1286 ft | 20 kts | 249° |
| 2026-04-26 19:43 | 48.68787 | 9.19291 | 1290 ft | 15 kts | 254° |
| 2026-04-26 19:43 | 48.68746 | 9.19262 | 1291 ft | 7 kts | 164° |
| 2026-04-26 19:43 | 48.68713 | 9.19277 | 1291 ft | 0 kts | 163° |